createdAt,value
2019-02-15T00:00:57.818Z,6.80
2019-02-15T00:03:25.244Z,6.05
2019-02-15T00:05:52.685Z,7.27
2019-02-15T00:08:20.165Z,6.40
2019-02-15T00:10:47.564Z,6.10
2019-02-15T00:13:15.061Z,7.03
2019-02-15T00:15:42.616Z,6.77
2019-02-15T00:18:27.806Z,6.57
2019-02-15T00:20:59.769Z,5.90
2019-02-15T00:23:27.168Z,7.37
2019-02-15T00:25:54.675Z,5.93
2019-02-15T00:28:22.167Z,6.60
2019-02-15T00:30:49.579Z,6.80
2019-02-15T00:33:16.995Z,6.70
2019-02-15T00:35:44.814Z,6.13
2019-02-15T00:38:12.246Z,6.53
2019-02-15T00:40:39.720Z,5.30
2019-02-15T00:43:07.180Z,4.87
2019-02-15T00:45:40.611Z,7.90
2019-02-15T00:48:12.538Z,5.73
2019-02-15T00:50:58.191Z,6.93
2019-02-15T00:53:47.628Z,6.53
2019-02-15T00:56:52.124Z,8.25
2019-02-15T00:59:56.590Z,7.37
2019-02-15T01:02:52.139Z,8.17
2019-02-15T01:05:37.164Z,7.03
2019-02-15T01:08:17.737Z,6.73
2019-02-15T01:11:04.098Z,5.60
2019-02-15T01:13:31.506Z,6.50
2019-02-15T01:15:58.952Z,6.03
2019-02-15T01:18:26.470Z,6.30
2019-02-15T01:20:53.967Z,6.57
2019-02-15T01:23:21.399Z,8.53
2019-02-15T01:26:06.773Z,5.60
2019-02-15T01:28:43.471Z,6.33
2019-02-15T01:31:29.893Z,6.57
2019-02-15T01:34:19.273Z,6.60
2019-02-15T01:36:51.594Z,5.40
2019-02-15T01:39:43.791Z,6.33
2019-02-15T01:42:39.438Z,6.47
2019-02-15T01:45:34.761Z,7.60
2019-02-15T01:48:02.243Z,6.33
2019-02-15T01:50:29.640Z,7.53
2019-02-15T01:52:57.047Z,6.23
2019-02-15T01:55:24.601Z,5.27
2019-02-15T01:57:52.105Z,6.90
2019-02-15T02:00:20.490Z,5.30
2019-02-15T02:02:47.934Z,8.00
2019-02-15T02:05:15.504Z,5.60
2019-02-15T02:07:42.977Z,5.93
2019-02-15T02:10:10.400Z,5.37
2019-02-15T02:12:37.873Z,6.33
2019-02-15T02:15:05.578Z,6.23
2019-02-15T02:17:33.173Z,6.53
2019-02-15T02:20:00.580Z,5.50
2019-02-15T02:22:28.004Z,5.70
2019-02-15T02:24:58.529Z,6.17
2019-02-15T02:27:26.012Z,6.23
2019-02-15T02:29:53.435Z,5.40
2019-02-15T02:32:20.978Z,5.63
2019-02-15T02:34:48.453Z,5.90
2019-02-15T02:37:15.899Z,5.77
2019-02-15T02:39:43.335Z,5.07
2019-02-15T02:42:10.792Z,7.00
2019-02-15T02:44:38.198Z,6.37
2019-02-15T02:47:05.944Z,6.63
2019-02-15T02:49:33.408Z,5.47
2019-02-15T02:52:00.819Z,5.43
2019-02-15T02:54:28.272Z,6.23
2019-02-15T02:56:55.740Z,6.13
2019-02-15T02:59:23.283Z,5.50
2019-02-15T03:01:50.881Z,5.43
2019-02-15T03:04:18.265Z,5.50
2019-02-15T03:06:45.670Z,5.43
2019-02-15T03:09:13.085Z,5.73
2019-02-15T03:11:40.741Z,6.30
2019-02-15T03:14:11.380Z,5.33
2019-02-15T03:16:37.329Z,5.63
2019-02-15T03:19:04.792Z,5.87
2019-02-15T03:21:32.220Z,4.83
2019-02-15T03:24:00.023Z,5.67
2019-02-15T03:26:27.497Z,6.53
2019-02-15T03:28:54.906Z,4.90
2019-02-15T03:31:22.309Z,6.30
2019-02-15T03:33:49.900Z,6.13
2019-02-15T03:36:31.461Z,5.60
2019-02-15T03:39:11.826Z,5.90
2019-02-15T03:41:39.215Z,5.73
2019-02-15T03:44:06.620Z,6.93
2019-02-15T03:46:34.063Z,5.73
2019-02-15T03:49:01.477Z,4.97
2019-02-15T03:51:28.940Z,6.23
2019-02-15T03:53:59.451Z,5.20
2019-02-15T03:56:26.894Z,6.27
2019-02-15T03:58:54.298Z,7.83
2019-02-15T04:01:21.696Z,5.93
2019-02-15T04:03:49.180Z,5.50
2019-02-15T04:06:16.588Z,5.33
2019-02-15T04:08:43.992Z,6.27
2019-02-15T04:11:11.398Z,5.73
2019-02-15T04:13:38.793Z,6.17
2019-02-15T04:16:06.177Z,6.63
2019-02-15T04:18:33.605Z,5.03
2019-02-15T04:21:01.002Z,5.03
2019-02-15T04:23:28.436Z,5.77
2019-02-15T04:25:55.865Z,6.13
2019-02-15T04:28:25.576Z,6.30
2019-02-15T04:30:53.085Z,5.27
2019-02-15T04:33:20.636Z,5.50
2019-02-15T04:35:48.038Z,6.33
2019-02-15T04:38:15.490Z,5.80
2019-02-15T04:40:42.903Z,9.93
2019-02-15T04:43:10.295Z,7.10
2019-02-15T04:45:37.819Z,6.33
2019-02-15T04:48:05.316Z,7.80
2019-02-15T04:50:32.702Z,5.90
2019-02-15T04:53:02.909Z,8.03
2019-02-15T04:55:29.255Z,7.37
2019-02-15T04:57:56.640Z,7.03
2019-02-15T05:00:24.047Z,6.83
2019-02-15T05:02:51.592Z,6.27
2019-02-15T05:05:19.098Z,7.17
2019-02-15T05:07:46.548Z,6.97
2019-02-15T05:10:14.032Z,8.07
2019-02-15T05:12:41.423Z,7.67
2019-02-15T05:15:08.799Z,7.37
2019-02-15T05:17:36.287Z,8.30
2019-02-15T05:20:03.679Z,7.57
2019-02-15T05:22:31.125Z,6.80
2019-02-15T05:24:58.608Z,7.60
2019-02-15T05:27:26.012Z,6.37
2019-02-15T05:29:53.423Z,8.07
2019-02-15T05:32:20.955Z,6.23
2019-02-15T05:34:48.361Z,7.07
2019-02-15T05:37:15.745Z,6.50
2019-02-15T05:39:43.154Z,8.20
2019-02-15T05:42:10.552Z,8.57
2019-02-15T05:44:37.951Z,7.63
2019-02-15T05:47:05.443Z,11.30
2019-02-15T05:49:32.840Z,7.40
2019-02-15T05:52:00.258Z,7.63
2019-02-15T05:54:27.704Z,8.37
2019-02-15T05:56:55.172Z,7.33
2019-02-15T05:59:22.567Z,6.27
2019-02-15T06:01:50.025Z,8.17
2019-02-15T06:04:17.432Z,6.40
2019-02-15T06:06:44.953Z,7.73
2019-02-15T06:09:12.392Z,7.33
2019-02-15T06:11:40.059Z,6.53
2019-02-15T06:14:07.441Z,9.53
2019-02-15T06:16:34.915Z,7.20
2019-02-15T06:19:02.477Z,8.27
2019-02-15T06:21:30.081Z,10.27
2019-02-15T06:23:57.955Z,7.70
2019-02-15T06:26:25.455Z,5.70
2019-02-15T06:28:53.014Z,11.63
2019-02-15T06:31:20.427Z,10.27
2019-02-15T06:33:48.089Z,5.27
2019-02-15T06:36:15.543Z,7.77
2019-02-15T06:38:43.187Z,7.60
2019-02-15T06:41:12.415Z,5.97
2019-02-15T06:43:39.837Z,6.37
2019-02-15T06:46:07.284Z,5.50
2019-02-15T06:48:34.692Z,7.17
2019-02-15T06:51:02.132Z,5.43
2019-02-15T06:53:29.552Z,6.47
2019-02-15T06:55:57.018Z,8.33
2019-02-15T06:58:24.484Z,10.87
2019-02-15T07:01:06.276Z,8.00
2019-02-15T07:03:45.420Z,8.37
2019-02-15T07:06:12.843Z,6.30
2019-02-15T07:08:45.009Z,6.63
2019-02-15T07:11:12.721Z,9.77
2019-02-15T07:13:40.225Z,8.17
2019-02-15T07:16:07.695Z,10.47
2019-02-15T07:18:35.216Z,7.17
2019-02-15T07:21:02.756Z,7.30
2019-02-15T07:23:30.164Z,16.30
2019-02-15T07:25:57.596Z,15.75
2019-02-15T07:28:25.072Z,12.28
2019-02-15T07:30:52.488Z,10.50
2019-02-15T07:33:19.998Z,10.67
2019-02-15T07:35:47.537Z,8.88
2019-02-15T07:38:15.049Z,12.00
2019-02-15T07:40:42.584Z,9.50
2019-02-15T07:43:10.002Z,7.77
2019-02-15T07:45:42.919Z,6.47
2019-02-15T07:48:06.674Z,6.73
2019-02-15T07:50:34.104Z,7.50
2019-02-15T07:53:01.701Z,9.97
2019-02-15T07:55:29.253Z,7.97
2019-02-15T07:57:56.647Z,8.00
2019-02-15T08:00:24.082Z,7.47
2019-02-15T08:02:51.559Z,7.73
2019-02-15T08:05:18.995Z,8.50
2019-02-15T08:07:46.391Z,7.83
2019-02-15T08:10:13.807Z,8.63
2019-02-15T08:12:41.269Z,7.63
2019-02-15T08:15:08.753Z,7.67
2019-02-15T08:17:36.154Z,7.90
2019-02-15T08:20:03.606Z,7.00
2019-02-15T08:22:31.014Z,6.67
2019-02-15T08:24:58.608Z,7.53
2019-02-15T08:27:26.044Z,8.53
2019-02-15T08:29:53.463Z,10.13
2019-02-15T08:32:20.882Z,7.93
2019-02-15T08:34:48.352Z,7.37
2019-02-15T08:37:15.798Z,8.37
2019-02-15T08:39:43.217Z,8.33
2019-02-15T08:42:10.662Z,8.10
2019-02-15T08:44:38.171Z,7.20
2019-02-15T08:47:06.996Z,10.43
2019-02-15T08:49:34.451Z,7.20
2019-02-15T08:52:01.913Z,8.80
2019-02-15T08:54:29.328Z,6.30
2019-02-15T08:56:57.053Z,8.97
2019-02-15T08:59:24.530Z,6.53
2019-02-15T09:02:26.106Z,7.13
2019-02-15T09:04:53.720Z,8.83
2019-02-15T09:07:21.180Z,7.53
2019-02-15T09:09:48.633Z,11.13
2019-02-15T09:12:16.027Z,7.73
2019-02-15T09:14:43.420Z,7.77
2019-02-15T09:17:10.933Z,7.33
2019-02-15T09:19:38.514Z,7.50
2019-02-15T09:22:06.007Z,9.20
2019-02-15T09:24:33.502Z,5.93
2019-02-15T09:27:07.525Z,9.27
2019-02-15T09:29:35.111Z,6.33
2019-02-15T09:32:02.633Z,9.00
2019-02-15T09:34:30.145Z,6.47
2019-02-15T09:36:57.587Z,6.23
2019-02-15T09:39:25.008Z,6.97
2019-02-15T09:41:52.530Z,6.23
2019-02-15T09:44:19.941Z,6.93
2019-02-15T09:46:47.545Z,8.77
2019-02-15T09:49:15.015Z,7.90
2019-02-15T09:51:42.514Z,6.80
2019-02-15T09:54:09.952Z,5.97
2019-02-15T09:56:37.477Z,7.20
2019-02-15T09:59:04.932Z,5.83
2019-02-15T10:01:32.347Z,5.73
2019-02-15T10:03:59.795Z,7.43
2019-02-15T10:06:27.354Z,7.33
2019-02-15T10:08:54.809Z,7.03
2019-02-15T10:11:22.243Z,6.07
2019-02-15T10:13:49.636Z,8.70
2019-02-15T10:16:17.143Z,5.37
2019-02-15T10:18:44.682Z,6.23
2019-02-15T10:21:12.172Z,5.23
2019-02-15T10:23:39.667Z,6.67
2019-02-15T10:26:07.312Z,5.90
2019-02-15T10:28:34.867Z,7.77
2019-02-15T10:31:02.284Z,6.70
2019-02-15T10:33:29.767Z,7.23
2019-02-15T10:35:57.214Z,6.83
2019-02-15T10:38:24.795Z,6.40
2019-02-15T10:40:52.352Z,7.40
2019-02-15T10:43:19.776Z,6.20
2019-02-15T10:45:47.267Z,9.10
2019-02-15T10:48:14.903Z,6.57
2019-02-15T10:50:42.387Z,7.00
2019-02-15T10:53:12.999Z,5.90
2019-02-15T10:55:59.333Z,8.33
2019-02-15T10:59:04.350Z,6.27
2019-02-15T11:01:42.629Z,6.10
2019-02-15T11:04:41.030Z,5.50
2019-02-15T11:07:07.545Z,5.40
2019-02-15T11:09:34.974Z,4.90
2019-02-15T11:12:02.406Z,4.50
2019-02-15T11:14:29.934Z,6.87
2019-02-15T11:16:57.364Z,4.63
2019-02-15T11:19:24.812Z,6.07
2019-02-15T11:21:52.248Z,4.60
2019-02-15T11:24:19.918Z,6.03
2019-02-15T11:26:47.398Z,5.45
2019-02-15T11:29:14.925Z,4.70
2019-02-15T11:31:42.433Z,5.13
2019-02-15T11:34:09.935Z,4.30
2019-02-15T11:36:37.386Z,4.77
2019-02-15T11:39:05.462Z,5.30
2019-02-15T11:41:32.975Z,4.10
2019-02-15T12:22:07.856Z,3.80
2019-02-15T12:24:35.328Z,3.53
2019-02-15T12:27:02.767Z,3.77
2019-02-15T12:29:30.329Z,6.40
2019-02-15T12:31:57.808Z,4.10
2019-02-15T12:34:25.286Z,3.45
2019-02-15T12:36:52.813Z,4.40
2019-02-15T12:39:20.227Z,3.87
2019-02-15T12:41:47.640Z,5.33
2019-02-15T12:44:15.222Z,3.80
2019-02-15T12:46:42.692Z,4.80
2019-02-15T13:06:35.811Z,4.73
2019-02-15T13:09:04.684Z,3.70
2019-02-15T13:11:32.170Z,4.05
2019-02-15T13:13:59.614Z,3.73
2019-02-15T13:16:27.065Z,3.37
2019-02-15T13:18:54.500Z,3.47
2019-02-15T13:21:22.094Z,3.53
2019-02-15T13:23:49.494Z,4.83
2019-02-15T13:26:16.952Z,3.57
2019-02-15T13:28:44.516Z,3.63
2019-02-15T13:31:12.167Z,3.50
2019-02-15T13:33:39.603Z,2.80
2019-02-15T13:36:07.149Z,3.87
2019-02-15T13:38:34.629Z,3.30
2019-02-15T13:41:02.138Z,3.30
2019-02-15T13:43:29.572Z,3.53
2019-02-15T13:45:56.976Z,3.30
2019-02-15T13:48:24.933Z,4.13
2019-02-15T13:50:52.350Z,3.50
2019-02-15T13:53:19.765Z,3.60
2019-02-15T13:55:47.236Z,4.80
2019-02-15T13:58:14.685Z,3.30
2019-02-15T14:00:42.160Z,3.73
2019-02-15T14:03:09.591Z,3.37
2019-02-15T14:58:15.851Z,7.30
2019-02-15T15:00:43.341Z,4.37
2019-02-15T15:03:10.812Z,5.10
2019-02-15T15:05:38.354Z,4.55
2019-02-15T15:08:05.842Z,3.80
2019-02-15T15:10:33.291Z,5.77
2019-02-15T15:13:00.704Z,4.33
2019-02-15T15:15:28.131Z,4.23
2019-02-15T15:18:02.467Z,5.27
2019-02-15T15:20:24.796Z,4.20
2019-02-15T15:22:52.223Z,5.65
2019-02-15T15:25:19.729Z,6.47
2019-02-15T15:27:47.143Z,4.10
2019-02-15T15:30:14.520Z,5.08
2019-02-15T15:32:41.987Z,5.33
2019-02-15T15:35:09.418Z,4.85
2019-02-15T15:37:36.831Z,4.17
2019-02-15T15:40:04.360Z,5.05
2019-02-15T15:42:31.785Z,4.30
2019-02-15T15:44:59.210Z,4.95
2019-02-15T15:47:26.689Z,5.33
2019-02-15T15:49:54.137Z,7.03
2019-02-15T15:52:21.616Z,5.40
2019-02-15T15:54:49.107Z,4.57
2019-02-15T15:57:16.647Z,7.30
2019-02-15T15:59:44.181Z,6.27
2019-02-15T16:02:11.683Z,5.27
2019-02-15T16:04:39.140Z,5.57
2019-02-15T16:07:06.685Z,5.15
2019-02-15T16:09:34.183Z,5.47
2019-02-15T16:12:01.693Z,6.57
2019-02-15T16:14:29.086Z,5.90
2019-02-15T16:16:56.524Z,7.87
2019-02-15T16:19:23.978Z,7.60
2019-02-15T16:21:51.488Z,9.53
2019-02-15T16:24:18.974Z,11.37
2019-02-15T16:26:46.526Z,9.20
2019-02-15T16:29:14.171Z,7.93
2019-02-15T16:31:41.774Z,9.03
2019-02-15T16:34:09.368Z,7.93
2019-02-15T16:36:36.830Z,11.23
2019-02-15T16:39:05.019Z,8.55
2019-02-15T16:41:32.461Z,8.50
2019-02-15T16:43:59.975Z,8.07
2019-02-15T16:46:27.489Z,8.75
2019-02-15T16:48:55.153Z,8.10
2019-02-15T16:51:22.654Z,7.75
2019-02-15T16:53:50.139Z,8.90
2019-02-15T16:56:17.667Z,9.95
2019-02-15T16:58:45.119Z,7.87
2019-02-15T17:01:12.624Z,8.83
2019-02-15T17:03:40.139Z,7.03
2019-02-15T17:06:07.658Z,8.23
2019-02-15T17:08:35.150Z,8.33
2019-02-15T17:11:02.639Z,9.88
2019-02-15T17:13:30.050Z,7.97
2019-02-15T17:15:57.563Z,7.13
2019-02-15T17:18:25.016Z,6.67
2019-02-15T17:20:52.444Z,6.22
2019-02-15T17:23:19.902Z,5.78
2019-02-15T17:25:47.347Z,6.80
2019-02-15T17:28:14.852Z,5.30
2019-02-15T17:30:42.282Z,8.40
2019-02-15T17:33:09.710Z,6.42
2019-02-15T17:35:37.190Z,7.25
2019-02-15T17:38:04.680Z,5.58
2019-02-15T17:40:32.224Z,7.95
2019-02-15T17:42:59.697Z,6.95
2019-02-15T17:45:27.193Z,7.00
2019-02-15T17:47:54.797Z,6.20
2019-02-15T17:50:22.277Z,8.45
2019-02-15T17:52:49.712Z,7.12
2019-02-15T17:55:17.199Z,11.18
2019-02-15T17:57:44.640Z,8.40
2019-02-15T18:00:12.053Z,8.95
2019-02-15T18:02:39.574Z,7.70
2019-02-15T18:05:08.549Z,8.65
2019-02-15T18:07:35.990Z,8.53
2019-02-15T18:10:03.484Z,9.33
2019-02-15T18:12:30.969Z,7.55
2019-02-15T18:14:58.393Z,8.55
2019-02-15T18:17:25.951Z,7.17
2019-02-15T18:19:53.395Z,6.55
2019-02-15T18:22:20.890Z,8.98
2019-02-15T18:24:48.377Z,8.65
2019-02-15T18:27:15.798Z,9.93
2019-02-15T18:29:43.328Z,9.03
2019-02-15T18:32:10.874Z,8.08
2019-02-15T18:34:38.350Z,9.23
2019-02-15T18:37:05.824Z,10.63
2019-02-15T18:39:33.355Z,7.40
2019-02-15T18:42:01.849Z,10.28
2019-02-15T18:44:29.319Z,11.60
2019-02-15T18:46:56.767Z,12.53
2019-02-15T18:49:24.233Z,13.08
2019-02-15T18:51:51.752Z,14.55
2019-02-15T18:54:19.288Z,20.88
2019-02-15T18:56:46.751Z,15.63
2019-02-15T18:59:14.176Z,12.40
2019-02-15T19:01:41.581Z,11.73
2019-02-15T19:04:09.019Z,11.60
2019-02-15T19:06:36.619Z,10.20
2019-02-15T19:09:04.925Z,9.45
2019-02-15T19:11:32.402Z,12.13
2019-02-15T19:13:59.871Z,13.58
2019-02-15T19:16:27.312Z,15.20
2019-02-15T19:18:54.781Z,16.00
2019-02-15T19:21:22.243Z,18.60
2019-02-15T19:23:49.669Z,17.70
2019-02-15T19:26:17.205Z,19.62
2019-02-15T19:28:44.695Z,20.15
2019-02-15T19:31:12.139Z,19.37
2019-02-15T19:33:39.595Z,16.20
2019-02-15T19:36:07.302Z,17.50
2019-02-15T19:38:34.720Z,20.02
2019-02-15T19:41:02.216Z,16.77
2019-02-15T19:43:29.637Z,20.68
2019-02-15T19:45:57.048Z,17.15
2019-02-15T19:48:24.490Z,14.93
2019-02-15T19:50:52.253Z,15.53
2019-02-15T19:53:19.734Z,13.13
2019-02-15T19:55:47.226Z,12.83
2019-02-15T19:58:14.702Z,11.35
2019-02-15T20:00:42.344Z,9.33
2019-02-15T20:03:09.853Z,13.03
2019-02-15T20:05:37.413Z,12.47
2019-02-15T20:08:04.826Z,10.58
2019-02-15T20:10:32.408Z,10.88
2019-02-15T20:13:00.927Z,12.33
2019-02-15T20:15:28.501Z,10.18
2019-02-15T20:17:56.013Z,14.95
2019-02-15T20:20:23.468Z,8.78
2019-02-15T20:22:50.989Z,9.00
2019-02-15T20:25:18.435Z,8.00
2019-02-15T20:27:45.992Z,9.77
2019-02-15T20:30:13.450Z,8.58
2019-02-15T20:32:40.852Z,8.35
2019-02-15T20:35:08.254Z,9.33
2019-02-15T20:37:35.803Z,6.77
2019-02-15T20:40:03.272Z,10.23
2019-02-15T20:42:30.760Z,7.83
2019-02-15T20:44:58.233Z,7.57
2019-02-15T20:47:25.874Z,7.17
2019-02-15T20:49:58.095Z,7.57
2019-02-15T20:52:23.298Z,7.03
2019-02-15T20:54:50.747Z,10.00
2019-02-15T20:57:18.248Z,7.83
2019-02-15T20:59:45.692Z,7.63
2019-02-15T21:02:14.396Z,7.03
2019-02-15T21:04:41.961Z,6.70
2019-02-15T21:07:09.446Z,7.15
2019-02-15T21:09:36.910Z,7.57
2019-02-15T21:12:04.301Z,6.97
2019-02-15T21:14:31.766Z,8.27
2019-02-15T21:16:59.181Z,8.40
2019-02-15T21:19:26.644Z,6.00
2019-02-15T21:21:54.199Z,7.23
2019-02-15T21:24:21.614Z,5.95
2019-02-15T21:26:49.149Z,6.43
2019-02-15T21:29:16.620Z,6.97
2019-02-15T21:31:44.128Z,7.40
2019-02-15T21:34:12.541Z,6.10
2019-02-15T21:36:40.069Z,6.37
2019-02-15T21:39:07.671Z,6.47
2019-02-15T21:41:35.128Z,7.77
2019-02-15T21:44:02.549Z,6.67
2019-02-15T21:46:29.994Z,7.53
2019-02-15T21:48:57.437Z,7.53
2019-02-15T21:51:24.940Z,6.10
2019-02-15T21:53:52.437Z,7.28
2019-02-15T21:56:20.001Z,6.50
2019-02-15T21:58:47.446Z,6.57
2019-02-15T22:01:14.951Z,6.08
2019-02-15T22:03:42.341Z,8.30
2019-02-15T22:06:09.848Z,7.47
2019-02-15T22:08:37.346Z,7.22
2019-02-15T22:11:04.797Z,6.28
2019-02-15T22:13:32.217Z,5.87
2019-02-15T22:15:59.726Z,6.90
2019-02-15T22:18:27.167Z,6.03
2019-02-15T22:20:54.586Z,5.93
2019-02-15T22:23:22.016Z,10.03
2019-02-15T22:25:49.489Z,17.23
2019-02-15T22:28:16.986Z,5.80
2019-02-15T22:30:44.472Z,8.33
2019-02-15T22:33:12.059Z,6.70
2019-02-15T22:35:39.548Z,8.03
2019-02-15T22:38:07.067Z,9.40
2019-02-15T22:40:34.530Z,7.75
2019-02-15T22:43:01.964Z,6.87
2019-02-15T22:45:29.409Z,4.90
2019-02-15T22:47:56.891Z,7.40
2019-02-15T22:50:24.412Z,11.20
2019-02-15T22:52:51.820Z,6.87
2019-02-15T22:55:19.249Z,6.80
2019-02-15T22:57:46.697Z,6.50
2019-02-15T23:00:14.273Z,5.27
2019-02-15T23:02:41.732Z,7.13
2019-02-15T23:05:09.137Z,8.00
2019-02-15T23:07:36.615Z,5.85
2019-02-15T23:10:05.141Z,7.20
2019-02-15T23:12:32.626Z,4.97
2019-02-15T23:15:00.105Z,7.20
2019-02-15T23:17:27.633Z,8.10
2019-02-15T23:19:55.123Z,5.70
2019-02-15T23:22:22.521Z,8.50
2019-02-15T23:24:50.035Z,6.53
2019-02-15T23:27:17.481Z,6.08
2019-02-15T23:29:44.880Z,7.47
2019-02-15T23:32:12.321Z,7.30
2019-02-15T23:34:39.740Z,7.90
2019-02-15T23:37:07.557Z,7.37
2019-02-15T23:39:34.978Z,6.50
2019-02-15T23:42:02.376Z,6.57
2019-02-15T23:44:29.770Z,6.10
2019-02-15T23:46:57.237Z,8.07
2019-02-15T23:49:24.843Z,7.40
2019-02-15T23:51:52.307Z,7.50
2019-02-15T23:54:19.800Z,7.53
2019-02-15T23:56:47.195Z,6.47
2019-02-15T23:59:14.813Z,6.73
